Time;durP1;ratioP1;P1;durP2;ratioP2;P2;SDS_P1;SDS_P2;PMS_P1;PMS_P2;Temp;Humidity;BMP_temperature;BMP_pressure;BME280_temperature;BME280_humidity;BME280_pressure;Samples;Min_cycle;Max_cycle;Signal;HPM_P1;HPM_P2
2024/04/06 00:02:14;;;;;;;2.83;1.80;;;17.30;99.90;;;;;;5074739;28;20488;-57
2024/04/06 00:04:41;;;;;;;5.60;1.33;;;17.30;99.90;;;;;;5074797;28;20447;-57
2024/04/06 00:07:07;;;;;;;3.97;1.60;;;17.30;99.90;;;;;;5074499;28;20559;-57
2024/04/06 00:09:34;;;;;;;1.47;1.30;;;17.30;99.90;;;;;;5074441;28;20447;-57
2024/04/06 00:12:02;;;;;;;1.37;1.27;;;17.30;99.90;;;;;;5074446;28;20441;-58
2024/04/06 00:14:28;;;;;;;7.63;1.70;;;17.30;99.90;;;;;;5074301;28;20448;-57
2024/04/06 00:16:55;;;;;;;3.23;1.67;;;17.30;99.90;;;;;;5074250;28;20436;-57
2024/04/06 00:19:20;;;;;;;3.07;1.33;;;17.20;99.90;;;;;;5073966;28;20216;-57
2024/04/06 00:21:47;;;;;;;4.43;1.57;;;17.20;99.90;;;;;;5074104;28;20440;-57
2024/04/06 00:24:13;;;;;;;2.40;1.43;;;17.20;99.90;;;;;;5074192;28;20251;-57
2024/04/06 00:26:40;;;;;;;5.77;2.00;;;17.10;99.90;;;;;;5073890;28;20476;-57
2024/04/06 00:29:07;;;;;;;1.97;1.60;;;17.10;99.90;;;;;;5074048;28;20222;-57
2024/04/06 00:31:34;;;;;;;3.37;1.73;;;17.20;99.90;;;;;;5073879;28;20451;-57
2024/04/06 00:34:01;;;;;;;2.77;1.70;;;17.10;99.90;;;;;;5073859;28;20950;-58
2024/04/06 00:36:28;;;;;;;3.30;1.73;;;17.10;99.90;;;;;;5073908;28;20472;-57
2024/04/06 00:38:54;;;;;;;3.10;1.30;;;17.10;99.90;;;;;;5073634;28;20514;-57
2024/04/06 00:41:21;;;;;;;4.07;1.40;;;17.10;99.90;;;;;;5073375;28;20561;-57
2024/04/06 00:43:47;;;;;;;1.70;1.33;;;17.10;99.90;;;;;;5073429;28;20579;-58
2024/04/06 00:46:16;;;;;;;3.30;1.57;;;17.10;99.90;;;;;;5073383;28;20503;-57
2024/04/06 00:48:42;;;;;;;2.43;1.30;;;17.10;99.90;;;;;;5073659;28;20324;-57
2024/04/06 00:51:09;;;;;;;4.13;1.40;;;17.10;99.90;;;;;;5073605;28;20895;-57
2024/04/06 00:53:35;;;;;;;3.27;2.00;;;17.10;99.90;;;;;;5073706;28;20208;-57
2024/04/06 00:56:02;;;;;;;1.83;1.40;;;17.10;99.90;;;;;;5073055;28;20794;-58
2024/04/06 00:58:28;;;;;;;2.47;1.40;;;17.10;99.90;;;;;;5073156;28;20229;-57
2024/04/06 01:00:55;;;;;;;5.17;1.90;;;17.10;99.90;;;;;;5073522;28;20445;-57
2024/04/06 01:03:22;;;;;;;4.17;1.63;;;17.10;99.90;;;;;;5073262;28;20616;-57
2024/04/06 01:05:49;;;;;;;3.60;1.50;;;17.10;99.90;;;;;;5073238;28;20480;-57
2024/04/06 01:08:15;;;;;;;2.87;1.50;;;17.10;99.90;;;;;;5073228;28;20514;-57
2024/04/06 01:10:42;;;;;;;3.53;1.70;;;17.10;99.90;;;;;;5073243;28;20444;-57
2024/04/06 01:13:07;;;;;;;4.50;1.50;;;17.10;99.90;;;;;;5073098;28;20206;-58
2024/04/06 01:15:34;;;;;;;3.10;1.40;;;17.10;99.90;;;;;;5072746;28;20831;-57
2024/04/06 01:18:00;;;;;;;4.27;1.93;;;17.10;99.90;;;;;;5073294;28;20317;-58
2024/04/06 01:20:29;;;;;;;6.43;1.87;;;17.10;99.90;;;;;;5073400;28;20523;-57
2024/04/06 01:22:55;;;;;;;2.43;1.40;;;17.10;99.90;;;;;;5073098;28;20198;-57
2024/04/06 01:25:23;;;;;;;3.53;1.73;;;17.10;99.90;;;;;;5073043;28;20498;-57
2024/04/06 01:27:49;;;;;;;4.50;1.37;;;17.00;99.90;;;;;;5072729;28;20226;-57
2024/04/06 01:30:16;;;;;;;3.77;2.10;;;17.00;99.90;;;;;;5072896;28;20451;-57
2024/04/06 01:32:46;;;;;;;5.37;1.80;;;17.00;99.90;;;;;;5073061;28;20206;-57
2024/04/06 01:35:13;;;;;;;5.30;2.10;;;17.00;99.90;;;;;;5072929;28;20433;-57
2024/04/06 01:37:39;;;;;;;2.53;1.70;;;17.00;99.90;;;;;;5072996;28;20465;-57
2024/04/06 01:40:07;;;;;;;4.60;2.27;;;17.00;99.90;;;;;;5072720;28;21026;-57
2024/04/06 01:42:34;;;;;;;5.50;2.30;;;17.00;99.90;;;;;;5072640;28;20202;-57
2024/04/06 01:45:02;;;;;;;4.63;2.07;;;17.00;99.90;;;;;;5072498;28;20494;-57
2024/04/06 01:47:28;;;;;;;2.93;1.50;;;16.90;99.90;;;;;;5072982;28;20513;-57
2024/04/06 01:49:55;;;;;;;4.80;1.83;;;16.90;99.90;;;;;;5072773;28;20897;-57
2024/04/06 01:52:21;;;;;;;6.03;2.10;;;16.90;99.90;;;;;;5072616;28;20211;-57
2024/04/06 01:54:48;;;;;;;2.30;2.10;;;16.90;99.90;;;;;;5072500;28;20500;-58
2024/04/06 01:57:13;;;;;;;2.33;1.47;;;16.90;99.90;;;;;;5072542;28;20313;-57
2024/04/06 01:59:43;;;;;;;2.80;1.80;;;16.80;99.90;;;;;;5072359;28;20872;-57
2024/04/06 02:02:09;;;;;;;4.87;2.27;;;16.80;99.90;;;;;;5073074;28;20256;-57
2024/04/06 02:04:37;;;;;;;2.53;2.13;;;16.80;99.90;;;;;;5072635;28;20449;-57
2024/04/06 02:07:04;;;;;;;1.73;1.60;;;16.80;99.90;;;;;;5072116;28;20221;-58
2024/04/06 02:09:31;;;;;;;4.77;2.10;;;16.80;99.90;;;;;;5072300;28;20912;-57
2024/04/06 02:11:57;;;;;;;4.87;2.00;;;16.70;99.90;;;;;;5072586;28;20440;-57
2024/04/06 02:14:24;;;;;;;2.43;2.03;;;16.70;99.90;;;;;;5072561;28;20807;-57
2024/04/06 02:16:51;;;;;;;2.13;1.60;;;16.70;99.90;;;;;;5072437;28;20203;-57
2024/04/06 02:19:18;;;;;;;6.00;2.70;;;16.70;99.90;;;;;;5072263;28;20922;-57
2024/04/06 02:21:44;;;;;;;3.43;2.67;;;16.60;99.90;;;;;;5073343;28;20488;-59
2024/04/06 02:24:10;;;;;;;10.63;3.37;;;16.60;99.90;;;;;;5072752;28;20440;-57
2024/04/06 02:26:36;;;;;;;5.00;3.60;;;16.60;99.90;;;;;;5072517;28;20229;-57
2024/04/06 02:29:03;;;;;;;6.70;3.70;;;16.60;99.90;;;;;;5072157;28;20472;-59
2024/04/06 02:31:30;;;;;;;6.43;3.63;;;16.50;99.90;;;;;;5072124;28;20206;-57
2024/04/06 02:33:58;;;;;;;7.30;4.03;;;16.50;99.90;;;;;;5072243;28;20451;-57
2024/04/06 02:36:23;;;;;;;4.00;3.10;;;16.50;99.90;;;;;;5072375;28;20546;-57
2024/04/06 02:38:51;;;;;;;6.17;3.70;;;16.50;99.90;;;;;;5072176;28;20828;-58
2024/04/06 02:41:17;;;;;;;3.97;3.00;;;16.50;99.90;;;;;;5072260;28;20446;-58
2024/04/06 02:43:44;;;;;;;3.80;2.80;;;16.50;99.90;;;;;;5072422;28;20494;-57
2024/04/06 02:46:10;;;;;;;5.10;2.80;;;16.50;99.90;;;;;;5072091;28;20587;-58
2024/04/06 02:48:37;;;;;;;3.70;2.67;;;16.40;99.90;;;;;;5072250;28;20464;-57
2024/04/06 02:51:04;;;;;;;3.60;2.67;;;16.40;99.90;;;;;;5072097;28;20451;-58
2024/04/06 02:53:31;;;;;;;3.43;2.53;;;16.40;99.90;;;;;;5072050;28;20943;-57
2024/04/06 02:55:57;;;;;;;4.03;2.30;;;16.40;99.90;;;;;;5072178;28;20444;-57
2024/04/06 02:58:24;;;;;;;4.47;2.37;;;16.40;99.90;;;;;;5072065;28;20997;-58
2024/04/06 03:00:50;;;;;;;2.93;1.87;;;16.30;99.90;;;;;;5072248;28;20209;-58
2024/04/06 03:03:16;;;;;;;3.27;2.47;;;16.30;99.90;;;;;;5072169;28;20444;-58
2024/04/06 03:05:42;;;;;;;3.60;2.77;;;16.30;99.90;;;;;;5073856;28;20198;-57
2024/04/06 03:08:11;;;;;;;4.10;3.00;;;16.30;99.90;;;;;;5075745;28;20479;-58
2024/04/06 03:10:37;;;;;;;3.23;2.70;;;16.30;99.90;;;;;;5075726;28;20275;-58
2024/04/06 03:13:04;;;;;;;3.47;3.00;;;16.30;99.90;;;;;;5075367;28;20931;-58
2024/04/06 03:15:30;;;;;;;2.97;2.10;;;16.20;99.90;;;;;;5075462;28;20207;-58
2024/04/06 03:17:57;;;;;;;5.03;2.20;;;16.20;99.90;;;;;;5075018;28;20977;-58
2024/04/06 03:20:23;;;;;;;2.27;1.90;;;16.20;99.90;;;;;;5075409;28;20205;-58
2024/04/06 03:23:00;;;;;;;3.80;2.00;;;16.20;99.90;;;;;;5075332;28;20432;-58
2024/04/06 03:25:28;;;;;;;3.57;2.33;;;16.20;99.90;;;;;;5075629;28;20197;-58
2024/04/06 03:27:55;;;;;;;3.53;2.70;;;16.20;99.90;;;;;;5074861;28;20486;-58
2024/04/06 03:30:22;;;;;;;4.33;2.47;;;16.10;99.90;;;;;;5075147;28;20445;-58
2024/04/06 03:32:50;;;;;;;2.50;2.13;;;16.10;99.90;;;;;;5075164;28;20467;-58
2024/04/06 03:35:16;;;;;;;3.40;2.10;;;16.10;99.90;;;;;;5075295;28;20441;-57
2024/04/06 03:37:42;;;;;;;4.43;2.63;;;16.10;99.90;;;;;;5075236;28;20497;-58
2024/04/06 03:40:11;;;;;;;4.27;2.27;;;16.10;99.90;;;;;;5074795;28;20539;-58
2024/04/06 03:42:38;;;;;;;5.27;2.03;;;16.00;99.90;;;;;;5074713;28;20456;-58
2024/04/06 03:45:06;;;;;;;2.03;1.70;;;16.00;99.90;;;;;;5074948;28;20463;-59
2024/04/06 03:47:32;;;;;;;2.70;2.50;;;16.00;99.90;;;;;;5074767;28;20994;-58
2024/04/06 03:49:59;;;;;;;3.43;3.13;;;16.00;99.90;;;;;;5074864;28;20451;-58
2024/04/06 03:52:25;;;;;;;3.63;2.63;;;16.00;99.90;;;;;;5074834;28;20441;-58
2024/04/06 03:54:51;;;;;;;2.80;2.17;;;16.00;99.90;;;;;;5074926;28;20817;-58
2024/04/06 03:57:17;;;;;;;7.27;2.20;;;16.00;99.90;;;;;;5074617;28;20221;-58
2024/04/06 03:59:45;;;;;;;4.03;2.30;;;16.00;99.90;;;;;;5074516;28;20532;-58
2024/04/06 04:02:11;;;;;;;3.37;1.90;;;16.00;99.90;;;;;;5074229;28;20759;-59
2024/04/06 04:04:38;;;;;;;6.40;2.93;;;16.00;99.90;;;;;;5075016;28;20536;-58
2024/04/06 04:07:04;;;;;;;3.50;1.93;;;15.90;99.90;;;;;;5074454;28;20222;-58
2024/04/06 04:09:31;;;;;;;4.77;2.27;;;15.90;99.90;;;;;;5074502;28;20445;-58
2024/04/06 04:11:56;;;;;;;2.77;2.20;;;15.90;99.90;;;;;;5074270;28;20304;-58
2024/04/06 04:14:23;;;;;;;3.23;2.33;;;15.90;99.90;;;;;;5074454;28;20441;-58
2024/04/06 04:16:50;;;;;;;2.40;2.20;;;15.90;99.90;;;;;;5073111;28;20205;-58
2024/04/06 04:19:17;;;;;;;3.63;2.23;;;15.80;99.90;;;;;;5074215;28;20448;-58
2024/04/06 04:21:43;;;;;;;4.70;2.47;;;15.80;99.90;;;;;;5074167;28;20961;-58
2024/04/06 04:24:10;;;;;;;4.20;2.50;;;15.80;99.90;;;;;;5057607;28;20448;-59
2024/04/06 04:26:37;;;;;;;5.77;3.00;;;15.80;99.90;;;;;;5074218;28;20321;-58
2024/04/06 04:29:04;;;;;;;3.30;2.80;;;15.70;99.90;;;;;;5073657;28;21002;-58
2024/04/06 04:31:30;;;;;;;6.20;3.03;;;15.70;99.90;;;;;;5074047;28;20502;-58
2024/04/06 04:33:58;;;;;;;4.33;2.40;;;15.70;99.90;;;;;;5073699;28;20850;-58
2024/04/06 04:36:24;;;;;;;2.93;2.27;;;15.70;99.90;;;;;;5073931;28;20451;-58
2024/04/06 04:38:51;;;;;;;4.00;2.60;;;15.70;99.90;;;;;;5073785;28;20547;-59
2024/04/06 04:41:16;;;;;;;3.60;2.60;;;15.70;99.90;;;;;;5073777;28;20198;-59
2024/04/06 04:43:43;;;;;;;2.60;2.37;;;15.60;99.90;;;;;;5073645;28;20452;-58
2024/04/06 04:46:09;;;;;;;4.73;3.33;;;15.60;99.90;;;;;;5074043;28;20198;-59
2024/04/06 04:48:54;;;;;;;3.00;2.70;;;15.60;99.90;;;;;;5073506;28;20480;-59
2024/04/06 04:51:22;;;;;;;2.83;2.63;;;15.60;99.90;;;;;;5073470;28;20191;-59
2024/04/06 04:53:49;;;;;;;3.87;2.83;;;15.60;99.90;;;;;;5073543;28;20479;-59
2024/04/06 04:56:16;;;;;;;4.43;3.00;;;15.60;99.90;;;;;;5073470;28;20441;-58
2024/04/06 04:58:42;;;;;;;3.73;2.10;;;15.60;99.90;;;;;;5073528;28;20521;-58
2024/04/06 05:01:08;;;;;;;3.00;1.83;;;15.50;99.90;;;;;;5072780;28;20809;-59
2024/04/06 05:03:35;;;;;;;2.43;2.03;;;15.50;99.90;;;;;;5073833;28;20436;-58
2024/04/06 05:06:01;;;;;;;2.07;1.87;;;15.50;99.90;;;;;;5073521;28;20642;-59
2024/04/06 05:08:30;;;;;;;2.27;2.03;;;15.50;99.90;;;;;;5072741;28;20915;-58
2024/04/06 05:10:56;;;;;;;5.60;2.27;;;15.50;99.90;;;;;;5073182;28;20441;-59
2024/04/06 05:13:23;;;;;;;5.13;2.27;;;15.50;99.90;;;;;;5073378;28;20535;-59
2024/04/06 05:15:49;;;;;;;4.70;2.80;;;15.50;99.90;;;;;;5073191;28;20206;-59
2024/04/06 05:18:16;;;;;;;3.30;2.53;;;15.50;99.90;;;;;;5073122;28;20468;-59
2024/04/06 05:20:49;;;;;;;3.83;2.30;;;15.50;99.90;;;;;;5073324;28;20441;-58
2024/04/06 05:23:16;;;;;;;4.40;2.93;;;15.50;99.90;;;;;;5073007;28;20930;-59
2024/04/06 05:25:43;;;;;;;6.73;2.97;;;15.60;99.90;;;;;;5073035;28;20502;-59
2024/04/06 05:28:10;;;;;;;3.40;2.80;;;15.60;99.90;;;;;;5055763;28;20570;-59
2024/04/06 05:30:36;;;;;;;9.60;3.47;;;15.60;99.90;;;;;;5073010;28;20440;-59
2024/04/06 05:33:03;;;;;;;4.93;3.57;;;15.60;99.90;;;;;;5072944;28;20515;-59
2024/04/06 05:35:29;;;;;;;5.70;3.30;;;15.60;99.90;;;;;;5072693;28;20206;-58
2024/04/06 05:37:55;;;;;;;4.57;3.33;;;15.60;99.90;;;;;;5072954;28;20462;-58
2024/04/06 05:40:21;;;;;;;6.07;3.63;;;15.70;99.90;;;;;;5072481;28;20225;-59
2024/04/06 05:42:50;;;;;;;4.90;3.13;;;15.70;99.90;;;;;;5073037;28;20440;-59
2024/04/06 05:45:16;;;;;;;6.07;3.27;;;15.70;99.90;;;;;;5073042;28;20199;-58
2024/04/06 05:47:42;;;;;;;7.40;4.03;;;15.70;99.90;;;;;;5072798;28;20490;-59
2024/04/06 05:50:08;;;;;;;4.70;3.53;;;15.70;99.90;;;;;;5072680;28;20212;-59
2024/04/06 05:52:35;;;;;;;4.00;3.30;;;15.80;99.90;;;;;;5072923;28;20535;-58
2024/04/06 05:55:05;;;;;;;6.37;3.63;;;15.80;99.90;;;;;;5072823;28;20445;-59
2024/04/06 05:57:32;;;;;;;3.77;3.27;;;15.90;99.90;;;;;;5072663;28;20468;-58
2024/04/06 05:59:59;;;;;;;3.40;2.97;;;15.90;99.90;;;;;;5072445;28;20443;-58
2024/04/06 06:02:26;;;;;;;5.17;3.00;;;15.90;99.90;;;;;;5072698;28;20449;-58
2024/04/06 06:04:52;;;;;;;7.07;3.10;;;16.00;99.90;;;;;;5072456;28;20445;-58
2024/04/06 06:07:18;;;;;;;2.97;2.70;;;16.00;99.90;;;;;;5072443;28;20491;-59
2024/04/06 06:09:44;;;;;;;7.73;3.10;;;16.00;99.90;;;;;;5072626;28;20198;-58
2024/04/06 06:12:11;;;;;;;2.87;2.63;;;16.10;99.90;;;;;;5072306;28;20450;-59
2024/04/06 06:14:37;;;;;;;3.40;2.93;;;16.10;99.90;;;;;;5072533;28;20221;-58
2024/04/06 06:17:05;;;;;;;4.33;3.00;;;16.20;99.90;;;;;;5072554;28;20944;-59
2024/04/06 06:19:31;;;;;;;6.57;2.97;;;16.20;99.90;;;;;;5072292;28;20672;-59
2024/04/06 06:21:57;;;;;;;2.80;1.90;;;16.20;99.90;;;;;;5072764;28;20449;-58
2024/04/06 06:24:23;;;;;;;2.90;2.37;;;16.20;99.90;;;;;;5072808;28;20209;-59
2024/04/06 06:26:50;;;;;;;5.33;2.50;;;16.30;99.90;;;;;;5071507;28;20531;-59
2024/04/06 06:29:17;;;;;;;4.30;2.93;;;16.30;99.90;;;;;;5072599;28;20278;-59
2024/04/06 06:31:43;;;;;;;5.07;2.80;;;16.30;99.90;;;;;;5072346;28;20962;-58
2024/04/06 06:34:11;;;;;;;5.03;3.20;;;16.30;99.90;;;;;;5064411;28;20451;-59
2024/04/06 06:36:38;;;;;;;11.10;2.97;;;16.40;99.90;;;;;;5072100;28;20449;-58
2024/04/06 06:39:04;;;;;;;7.37;2.90;;;16.40;99.90;;;;;;5072116;28;20514;-58
2024/04/06 06:41:33;;;;;;;4.50;2.70;;;16.40;99.90;;;;;;5075333;28;20452;-58
2024/04/06 06:43:58;;;;;;;5.47;2.80;;;16.40;99.90;;;;;;5076468;28;20452;-58
2024/04/06 06:46:25;;;;;;;2.30;2.10;;;16.50;99.90;;;;;;5075674;28;20444;-59
2024/04/06 06:48:51;;;;;;;6.13;2.57;;;16.60;99.90;;;;;;5075891;28;20256;-59
2024/04/06 06:51:19;;;;;;;3.43;2.03;;;16.60;99.90;;;;;;5075972;28;20516;-58
2024/04/06 06:53:45;;;;;;;5.90;2.37;;;16.70;99.90;;;;;;5076061;28;20203;-59
2024/04/06 06:56:12;;;;;;;6.70;2.90;;;16.80;99.90;;;;;;5075879;28;20451;-59
2024/04/06 06:58:38;;;;;;;3.53;2.37;;;16.80;99.90;;;;;;5075769;28;20218;-58
2024/04/06 07:01:05;;;;;;;4.80;2.30;;;17.00;99.90;;;;;;5075907;28;20444;-58
2024/04/06 07:03:30;;;;;;;3.03;2.10;;;17.00;99.90;;;;;;5075567;28;20209;-58
2024/04/06 07:05:57;;;;;;;3.80;2.17;;;17.10;99.90;;;;;;5075328;28;20523;-58
2024/04/06 07:08:24;;;;;;;4.53;2.30;;;17.20;99.90;;;;;;5075549;28;20313;-58
2024/04/06 07:10:51;;;;;;;6.10;2.33;;;17.30;99.90;;;;;;5075512;28;20449;-58
2024/04/06 07:13:17;;;;;;;3.00;1.93;;;17.40;99.90;;;;;;5075717;28;20813;-58
2024/04/06 07:15:44;;;;;;;2.90;2.30;;;17.50;99.90;;;;;;5075266;28;20449;-57
2024/04/06 07:18:09;;;;;;;4.43;1.87;;;17.60;99.90;;;;;;5075615;28;20221;-60
2024/04/06 07:20:36;;;;;;;2.47;1.70;;;17.60;99.90;;;;;;5075184;28;20828;-58
2024/04/06 07:23:03;;;;;;;4.53;2.40;;;17.70;99.90;;;;;;5075279;28;20211;-57
2024/04/06 07:25:31;;;;;;;4.83;1.47;;;17.70;99.50;;;;;;5074913;28;20487;-60
2024/04/06 07:27:57;;;;;;;3.30;1.90;;;17.80;99.30;;;;;;5074995;28;20488;-57
2024/04/06 07:30:24;;;;;;;2.10;1.87;;;17.80;99.30;;;;;;5075067;28;20466;-57
2024/04/06 07:32:49;;;;;;;3.60;1.67;;;17.80;99.10;;;;;;5075194;28;20199;-58
2024/04/06 07:35:16;;;;;;;4.63;1.90;;;17.90;98.70;;;;;;5074983;28;20539;-57
2024/04/06 07:37:42;;;;;;;4.43;1.90;;;18.00;98.50;;;;;;5075374;28;20320;-57
2024/04/06 07:40:10;;;;;;;6.10;2.03;;;18.10;98.40;;;;;;5075025;28;20816;-57
2024/04/06 07:42:38;;;;;;;3.77;2.03;;;18.20;98.00;;;;;;5075288;28;20206;-57
2024/04/06 07:45:05;;;;;;;2.80;1.80;;;18.40;97.20;;;;;;5074737;28;20452;-57
2024/04/06 07:47:31;;;;;;;3.83;1.70;;;18.50;97.10;;;;;;5074758;28;20488;-57
2024/04/06 07:49:58;;;;;;;3.03;1.60;;;18.60;96.60;;;;;;5074877;28;21131;-57
2024/04/06 07:52:24;;;;;;;5.60;1.90;;;18.70;96.70;;;;;;5074371;28;20208;-57
2024/04/06 07:54:51;;;;;;;3.07;1.50;;;18.90;96.00;;;;;;5074940;28;20524;-57
2024/04/06 07:57:17;;;;;;;3.63;2.00;;;19.00;95.40;;;;;;5074823;28;20229;-57
2024/04/06 07:59:45;;;;;;;4.93;1.77;;;19.10;94.50;;;;;;5074898;28;20448;-57
2024/04/06 08:02:11;;;;;;;5.47;1.70;;;19.20;94.40;;;;;;5074466;28;20202;-57
2024/04/06 08:04:38;;;;;;;2.70;1.53;;;19.30;93.90;;;;;;5074879;28;20437;-57
2024/04/06 08:07:06;;;;;;;4.73;1.60;;;19.40;93.20;;;;;;5074569;28;20815;-57
2024/04/06 08:09:33;;;;;;;2.83;1.67;;;19.60;93.10;;;;;;5074588;28;20449;-57
2024/04/06 08:11:59;;;;;;;1.63;1.53;;;19.70;93.10;;;;;;5075010;28;20437;-57
2024/04/06 08:14:26;;;;;;;1.53;1.37;;;19.80;92.50;;;;;;5074687;28;20441;-57
2024/04/06 08:16:53;;;;;;;1.40;1.30;;;20.00;91.90;;;;;;5074503;28;20213;-57
2024/04/06 08:19:20;;;;;;;2.70;1.57;;;20.10;91.80;;;;;;5074369;28;20478;-57
2024/04/06 08:21:46;;;;;;;6.50;2.23;;;20.20;91.80;;;;;;5074152;28;20451;-59
2024/04/06 08:24:13;;;;;;;4.03;1.57;;;20.30;91.60;;;;;;5074198;28;20441;-58
2024/04/06 08:26:38;;;;;;;3.13;1.40;;;20.30;91.00;;;;;;5074585;28;20260;-57
2024/04/06 08:29:05;;;;;;;1.87;1.13;;;20.40;90.70;;;;;;5073556;28;20480;-57
2024/04/06 08:31:31;;;;;;;3.43;2.30;;;20.50;90.30;;;;;;5074233;28;20203;-57
2024/04/06 08:33:59;;;;;;;2.00;1.40;;;20.60;90.10;;;;;;5073603;28;20935;-57
2024/04/06 08:36:25;;;;;;;2.00;1.50;;;20.70;89.20;;;;;;5074004;28;20202;-57
2024/04/06 08:38:52;;;;;;;1.57;1.03;;;20.80;88.00;;;;;;5073259;28;20838;-57
2024/04/06 08:41:18;;;;;;;3.33;1.30;;;20.90;86.90;;;;;;5073854;28;20285;-57
2024/04/06 08:43:47;;;;;;;3.77;1.20;;;21.00;86.30;;;;;;5073619;28;20958;-57
2024/04/06 08:46:13;;;;;;;2.20;1.40;;;21.20;87.30;;;;;;5073470;28;20452;-58
2024/04/06 08:48:43;;;;;;;1.30;1.20;;;21.40;85.20;;;;;;5073546;28;20492;-57
2024/04/06 08:51:13;;;;;;;3.20;1.53;;;21.50;83.40;;;;;;5073692;28;20206;-57
2024/04/06 08:53:40;;;;;;;3.40;1.20;;;21.70;84.00;;;;;;5073933;28;20502;-57
2024/04/06 08:56:06;;;;;;;3.90;1.60;;;21.90;81.90;;;;;;5073483;28;20449;-57
2024/04/06 08:58:34;;;;;;;2.40;0.93;;;22.00;80.90;;;;;;5073013;28;20468;-57
2024/04/06 09:01:02;;;;;;;3.07;1.40;;;22.10;79.80;;;;;;5072998;28;20445;-57
2024/04/06 09:03:29;;;;;;;1.10;1.00;;;22.20;79.30;;;;;;5072728;28;20440;-57
2024/04/06 09:05:55;;;;;;;2.40;1.40;;;22.20;78.00;;;;;;5073272;28;20448;-57
2024/04/06 09:08:23;;;;;;;2.30;1.17;;;22.30;78.70;;;;;;5073168;28;20491;-57
2024/04/06 09:10:54;;;;;;;1.53;1.20;;;22.40;76.70;;;;;;5072800;28;20673;-58
2024/04/06 09:13:22;;;;;;;1.23;0.97;;;22.60;77.00;;;;;;5073271;28;20519;-57
2024/04/06 09:15:47;;;;;;;2.00;1.50;;;22.70;74.60;;;;;;5073301;28;20445;-58
2024/04/06 09:18:14;;;;;;;1.57;1.00;;;22.90;73.80;;;;;;5072899;28;20467;-58
2024/04/06 09:20:40;;;;;;;2.77;1.30;;;23.00;70.90;;;;;;5072843;28;20208;-57
2024/04/06 09:23:07;;;;;;;1.67;1.23;;;23.10;71.10;;;;;;5072780;28;20535;-57
2024/04/06 09:25:34;;;;;;;2.90;1.17;;;23.30;70.00;;;;;;5072986;28;20586;-57
2024/04/06 09:28:04;;;;;;;1.70;1.30;;;23.50;68.80;;;;;;5072417;28;20481;-57
2024/04/06 09:30:40;;;;;;;2.97;1.63;;;23.70;67.50;;;;;;5073014;28;20421;-57
2024/04/06 09:33:10;;;;;;;3.63;1.13;;;23.90;65.80;;;;;;5072758;28;20941;-57
2024/04/06 09:35:38;;;;;;;1.63;0.87;;;24.00;65.10;;;;;;5072978;28;20449;-57
2024/04/06 09:38:06;;;;;;;2.07;1.27;;;24.30;63.30;;;;;;5072732;28;20464;-57
2024/04/06 09:40:34;;;;;;;1.27;0.80;;;24.40;61.70;;;;;;5072702;28;20443;-57
2024/04/06 09:43:02;;;;;;;2.40;1.40;;;24.50;61.80;;;;;;5072179;28;20448;-57
2024/04/06 09:45:29;;;;;;;10.63;3.30;;;24.70;60.60;;;;;;5072096;28;20543;-57
2024/04/06 09:47:57;;;;;;;1.43;1.13;;;24.80;59.40;;;;;;5072289;28;20523;-57
2024/04/06 09:50:24;;;;;;;1.47;0.87;;;24.80;58.90;;;;;;5072670;28;20943;-57
2024/04/06 09:52:51;;;;;;;2.00;0.87;;;24.80;59.00;;;;;;5073042;28;20452;-58
2024/04/06 09:55:17;;;;;;;3.23;1.20;;;24.70;58.70;;;;;;5072320;28;20447;-58
2024/04/06 09:57:46;;;;;;;7.60;1.30;;;24.70;58.60;;;;;;5072729;28;20461;-57
2024/04/06 10:00:13;;;;;;;2.10;1.30;;;24.60;58.50;;;;;;5072687;28;20452;-58
2024/04/06 10:02:40;;;;;;;2.70;1.00;;;24.60;58.30;;;;;;5072401;28;20445;-57
2024/04/06 10:05:06;;;;;;;2.20;0.97;;;24.70;58.80;;;;;;5072552;28;20436;-57
2024/04/06 10:07:36;;;;;;;2.30;1.23;;;24.80;57.50;;;;;;5072376;28;20855;-57
2024/04/06 10:10:03;;;;;;;1.23;0.97;;;24.80;57.90;;;;;;5072114;28;20546;-57
2024/04/06 10:12:43;;;;;;;3.73;0.87;;;24.90;57.80;;;;;;5072541;28;20444;-57
2024/04/06 10:15:15;;;;;;;1.20;1.10;;;25.20;56.60;;;;;;5075056;28;20520;-58
2024/04/06 10:17:43;;;;;;;1.63;0.70;;;25.20;56.80;;;;;;5075427;28;20492;-58
2024/04/06 10:20:10;;;;;;;1.70;1.20;;;25.20;56.30;;;;;;5076131;28;20444;-57
2024/04/06 10:22:54;;;;;;;0.93;0.83;;;25.20;56.90;;;;;;5076288;28;20452;-57
2024/04/06 10:25:26;;;;;;;2.30;0.93;;;25.40;56.10;;;;;;5074930;28;21045;-57
2024/04/06 10:28:01;;;;;;;1.40;1.13;;;25.60;55.00;;;;;;5075858;28;20534;-58
2024/04/06 10:30:28;;;;;;;1.70;1.03;;;26.10;54.60;;;;;;5075315;28;20416;-55
2024/04/06 10:32:55;;;;;;;1.10;1.00;;;26.60;53.60;;;;;;5075886;28;20502;-55
2024/04/06 10:35:21;;;;;;;2.80;1.00;;;27.10;50.50;;;;;;5075101;28;20536;-55
2024/04/06 10:37:48;;;;;;;3.03;1.10;;;27.30;49.50;;;;;;5075478;28;20467;-56
2024/04/06 10:40:14;;;;;;;2.80;1.20;;;27.60;47.70;;;;;;5075861;28;20440;-56
2024/04/06 10:42:41;;;;;;;1.37;0.90;;;27.70;46.90;;;;;;5075652;28;20452;-55
2024/04/06 10:45:11;;;;;;;2.40;0.97;;;28.10;45.40;;;;;;5074857;28;20448;-56
2024/04/06 10:47:39;;;;;;;1.80;1.17;;;28.20;45.70;;;;;;5074863;28;20468;-55
2024/04/06 10:50:07;;;;;;;1.87;1.10;;;28.40;43.40;;;;;;5075115;28;20444;-55
2024/04/06 10:52:35;;;;;;;1.80;0.77;;;28.50;42.50;;;;;;5075814;28;20566;-56
2024/04/06 10:55:09;;;;;;;3.50;1.10;;;28.60;42.40;;;;;;5075120;28;20439;-56
2024/04/06 10:57:37;;;;;;;2.20;1.00;;;28.60;41.90;;;;;;5075642;28;20460;-55
2024/04/06 11:00:08;;;;;;;1.77;0.93;;;28.70;42.50;;;;;;5075325;28;20444;-55
2024/04/06 11:02:36;;;;;;;1.27;0.70;;;28.90;40.10;;;;;;5075518;28;20796;-55
2024/04/06 11:05:04;;;;;;;2.13;1.10;;;28.80;38.50;;;;;;5074923;28;20455;-55
2024/04/06 11:07:31;;;;;;;2.53;1.00;;;28.60;38.90;;;;;;5074372;28;20982;-56
2024/04/06 11:09:57;;;;;;;1.57;1.10;;;28.50;38.80;;;;;;5078529;28;20439;-55
2024/04/06 11:12:27;;;;;;;2.60;1.00;;;28.50;38.40;;;;;;5077978;28;20449;-55
2024/04/06 11:14:53;;;;;;;4.20;1.30;;;28.50;38.70;;;;;;5075285;28;20447;-55
2024/04/06 11:17:20;;;;;;;0.83;0.73;;;28.60;38.50;;;;;;5074785;28;20468;-56
2024/04/06 11:19:52;;;;;;;5.00;1.00;;;28.70;38.10;;;;;;5074709;28;20664;-56
2024/04/06 11:22:21;;;;;;;2.67;1.20;;;29.00;37.90;;;;;;5076113;28;20493;-56
2024/04/06 11:24:48;;;;;;;1.30;1.17;;;29.40;37.10;;;;;;5095179;28;20760;-56
2024/04/06 11:27:19;;;;;;;3.57;1.20;;;29.80;35.60;;;;;;5094506;28;20485;-55
2024/04/06 11:29:48;;;;;;;1.47;0.90;;;29.90;35.50;;;;;;5093180;28;20503;-56
2024/04/06 11:32:19;;;;;;;2.53;1.00;;;29.80;35.30;;;;;;5090749;28;20443;-55
2024/04/06 11:34:45;;;;;;;1.40;0.90;;;29.70;34.60;;;;;;5095349;28;20440;-55
2024/04/06 11:37:12;;;;;;;3.50;0.93;;;29.60;34.20;;;;;;5094982;28;20529;-55
2024/04/06 11:39:40;;;;;;;2.23;0.90;;;29.80;34.60;;;;;;5094681;28;20435;-56
2024/04/06 11:42:07;;;;;;;1.53;0.80;;;30.20;34.00;;;;;;5074584;28;20444;-57
2024/04/06 11:44:33;;;;;;;1.40;1.27;;;30.70;34.00;;;;;;5085110;28;20436;-56
2024/04/06 11:47:00;;;;;;;2.20;0.90;;;31.20;32.40;;;;;;5094065;28;20445;-55
2024/04/06 11:49:26;;;;;;;1.93;0.90;;;31.10;31.20;;;;;;5094420;28;20221;-56
2024/04/06 11:51:53;;;;;;;0.93;0.83;;;31.30;31.40;;;;;;5094524;28;20443;-56
2024/04/06 11:54:18;;;;;;;2.03;1.70;;;31.60;31.80;;;;;;5094587;28;20201;-56
2024/04/06 11:56:47;;;;;;;5.00;1.37;;;31.70;31.60;;;;;;5094681;28;20951;-55
2024/04/06 11:59:13;;;;;;;1.13;0.90;;;31.80;31.70;;;;;;5094570;28;20288;-56
2024/04/06 12:01:40;;;;;;;4.67;1.47;;;31.70;31.20;;;;;;5094873;28;20526;-55
2024/04/06 12:04:06;;;;;;;1.50;1.00;;;31.60;30.80;;;;;;5094695;28;20282;-55
2024/04/06 12:06:33;;;;;;;1.13;0.93;;;31.70;30.80;;;;;;5094540;28;20940;-55
2024/04/06 12:08:59;;;;;;;1.80;0.93;;;31.70;30.50;;;;;;5093605;28;20231;-55
2024/04/06 12:11:26;;;;;;;1.53;1.23;;;31.60;30.60;;;;;;5093750;28;20521;-56
2024/04/06 12:13:54;;;;;;;1.93;0.80;;;31.80;30.00;;;;;;5094450;28;20232;-56
2024/04/06 12:16:22;;;;;;;1.10;0.90;;;31.90;30.70;;;;;;5093486;28;20462;-56
2024/04/06 12:18:48;;;;;;;2.53;1.20;;;32.20;30.00;;;;;;5093762;28;20459;-56
2024/04/06 12:21:15;;;;;;;2.23;1.10;;;32.40;29.80;;;;;;5093827;28;20446;-55
2024/04/06 12:23:40;;;;;;;1.30;0.90;;;32.40;28.80;;;;;;5094147;28;20318;-55
2024/04/06 12:26:07;;;;;;;2.20;0.97;;;32.10;29.20;;;;;;5093818;28;21024;-55
2024/04/06 12:28:33;;;;;;;2.33;1.17;;;32.00;29.30;;;;;;5093421;28;20225;-56
2024/04/06 12:31:01;;;;;;;2.03;1.17;;;32.10;29.40;;;;;;5093780;28;20523;-56
2024/04/06 12:33:28;;;;;;;2.30;1.13;;;32.40;29.20;;;;;;5093457;28;20201;-55
2024/04/06 12:35:55;;;;;;;1.60;1.07;;;32.50;28.50;;;;;;5093554;28;20443;-55
2024/04/06 12:38:22;;;;;;;1.33;0.93;;;32.50;28.10;;;;;;5092685;28;20546;-56
2024/04/06 12:40:48;;;;;;;1.60;0.90;;;32.40;28.20;;;;;;5093072;28;20481;-56
2024/04/06 12:43:14;;;;;;;4.90;1.20;;;32.40;28.30;;;;;;5093585;28;20448;-56
2024/04/06 12:45:41;;;;;;;2.67;0.97;;;32.20;28.40;;;;;;5093312;28;20496;-55